createdAt,value
2023-03-17T08:25:32.292Z,22.6110
2023-03-17T08:25:32.292Z,22.0102
2023-03-17T08:26:03.227Z,22.6525
2023-03-17T08:27:01.113Z,22.6722
2023-03-17T08:28:02.453Z,22.0562
2023-03-17T08:29:03.843Z,21.7562
2023-03-17T08:30:05.154Z,21.6367
2023-03-17T08:30:50.682Z,22.7131
2023-03-17T08:31:52.359Z,22.1218
2023-03-17T08:32:53.958Z,21.8577
2023-03-17T08:33:55.337Z,21.7366
2023-03-17T08:34:56.692Z,21.6681
2023-03-17T08:35:58.132Z,21.6152
2023-03-17T08:36:59.472Z,21.5841
2023-03-17T08:38:00.849Z,21.5647
2023-03-17T08:39:02.218Z,21.5679
2023-03-17T08:40:03.578Z,21.5873
2023-03-17T08:41:04.970Z,21.6132
2023-03-17T08:42:06.303Z,21.6583
2023-03-17T08:43:07.702Z,21.7039
2023-03-17T08:44:09.054Z,21.7347
2023-03-17T08:45:10.434Z,21.7734
2023-03-17T08:46:11.824Z,21.8292
2023-03-17T08:47:13.156Z,21.8837
2023-03-17T08:48:14.542Z,21.9331
2023-03-17T08:49:15.920Z,21.9902
2023-03-17T08:50:17.254Z,22.0546
2023-03-17T08:51:20.840Z,22.1050
2023-03-17T08:52:23.477Z,22.1389
2023-03-17T08:53:24.844Z,22.1712
2023-03-17T08:54:26.214Z,22.2026
2023-03-17T08:56:18.062Z,22.3501
2023-03-17T08:57:18.048Z,22.3036
2023-03-17T08:58:18.019Z,22.3156
2023-03-17T08:59:39.736Z,22.4490
2023-03-17T09:00:40.853Z,22.3256
2023-03-17T09:01:40.867Z,22.2564
2023-03-17T09:02:40.861Z,22.2401
2023-03-17T09:04:10.965Z,22.4361
2023-03-17T09:05:12.041Z,22.3723
2023-03-17T09:07:51.271Z,22.1990
2023-03-17T09:08:52.308Z,22.0833
2023-03-17T09:10:19.330Z,22.1852
2023-03-17T09:11:20.426Z,22.0561
2023-03-17T09:12:21.521Z,21.9856
2023-03-17T09:13:22.578Z,21.9871
2023-03-17T09:14:23.669Z,22.0654
2023-03-17T09:15:24.872Z,22.1285
2023-03-17T09:16:54.117Z,22.3164
2023-03-17T09:17:55.191Z,22.2842
2023-03-17T09:18:56.259Z,22.4315
2023-03-17T09:19:57.389Z,22.5638
2023-03-17T09:21:30.914Z,22.7099
2023-03-17T09:22:32.039Z,22.5949
2023-03-17T09:23:33.325Z,22.6175
2023-03-17T09:24:34.458Z,22.5991
2023-03-17T09:25:35.554Z,22.5279
2023-03-17T09:26:36.670Z,22.4775
2023-03-17T09:27:37.794Z,23.9772
2023-03-17T09:29:39.905Z,28.0073
2023-03-17T09:30:41.005Z,26.1809
2023-03-17T09:31:42.499Z,24.8465
2023-03-17T09:33:12.305Z,23.7930
2023-03-17T09:35:23.551Z,23.1181
2023-03-17T09:36:24.636Z,22.9065
2023-03-17T09:37:25.756Z,22.7864
2023-03-17T09:38:26.893Z,22.6143
2023-03-17T09:39:27.974Z,22.6446
2023-03-17T09:46:14.720Z,23.0843
2023-03-17T09:47:15.760Z,23.0274
2023-03-17T09:48:16.853Z,22.9833
2023-03-17T09:49:17.972Z,22.9854
2023-03-17T09:50:19.087Z,23.0462
2023-03-17T09:51:20.180Z,23.0252
2023-03-17T09:52:21.257Z,22.9797
2023-03-17T09:53:22.349Z,22.9750
2023-03-17T09:54:23.436Z,22.8434
2023-03-17T09:55:24.536Z,22.8356
2023-03-17T09:56:25.659Z,22.8101
2023-03-17T09:57:26.753Z,22.9257
2023-03-17T09:58:27.871Z,22.9940
2023-03-17T10:00:30.092Z,23.0384
2023-03-17T10:01:31.213Z,23.0241
2023-03-17T10:03:33.350Z,22.9961
2023-03-17T10:04:34.453Z,22.9515
2023-03-17T10:05:36.183Z,22.9570
2023-03-17T10:06:37.406Z,22.8569
2023-03-17T10:07:38.496Z,22.7582
2023-03-17T10:08:39.619Z,22.7240
2023-03-17T10:09:40.709Z,22.7846
2023-03-17T10:10:41.830Z,22.8432
2023-03-17T10:11:42.900Z,22.9325
2023-03-17T10:12:44.010Z,23.0291
2023-03-17T10:13:45.108Z,23.0541
2023-03-17T10:14:46.218Z,23.0594
2023-03-17T10:15:47.360Z,23.0761
2023-03-17T10:16:48.532Z,23.0718
2023-03-17T10:17:49.609Z,23.0482
2023-03-17T10:18:50.701Z,23.0795
2023-03-17T10:20:52.820Z,23.3229
2023-03-17T10:21:53.980Z,23.4002
2023-03-17T10:22:55.065Z,23.4132
2023-03-17T10:23:56.165Z,23.3939
2023-03-17T10:24:57.236Z,23.3781
2023-03-17T10:27:16.695Z,23.3516
2023-03-17T10:28:17.643Z,23.4007
2023-03-17T10:29:18.598Z,23.4413
2023-03-17T10:30:20.077Z,23.3829
